createdAt,value
2023-01-04T06:42:40.763Z,30.10
2023-01-04T06:47:44.656Z,30.10
2023-01-04T06:52:48.607Z,38.43
2023-01-04T06:57:57.651Z,41.43
2023-01-04T07:03:14.299Z,43.63
2023-01-04T07:08:20.351Z,30.40
2023-01-04T07:13:24.682Z,30.20
2023-01-04T07:18:29.134Z,31.47
2023-01-04T07:23:32.892Z,40.83
2023-01-04T07:28:54.835Z,34.73
2023-01-04T07:33:59.857Z,37.47
2023-01-04T07:39:04.028Z,41.70
2023-01-04T07:44:09.233Z,45.13
2023-01-04T07:49:17.390Z,48.23
2023-01-04T07:54:22.139Z,41.47
2023-01-04T07:59:25.894Z,45.43
2023-01-04T08:04:34.550Z,54.30
2023-01-04T08:09:39.169Z,49.70
2023-01-04T08:14:43.143Z,54.27
2023-01-04T08:19:47.813Z,51.57
2023-01-04T08:24:51.615Z,58.80
2023-01-04T08:29:55.444Z,45.20
2023-01-04T08:34:59.207Z,55.17
2023-01-04T08:40:03.457Z,59.20
2023-01-04T08:45:08.293Z,56.83
2023-01-04T08:50:12.068Z,53.07
2023-01-04T08:55:23.006Z,48.13
2023-01-04T09:00:28.367Z,50.63
2023-01-04T09:05:33.507Z,40.37
2023-01-04T09:10:39.579Z,41.00
2023-01-04T09:15:43.749Z,48.17
2023-01-04T09:20:47.147Z,43.67
2023-01-04T09:25:51.605Z,36.50
2023-01-04T09:30:55.016Z,34.03
2023-01-04T09:36:03.249Z,34.30
2023-01-04T09:41:38.297Z,36.90
2023-01-04T09:47:12.048Z,31.90
2023-01-04T09:52:19.704Z,33.17
2023-01-04T09:57:37.269Z,31.20
2023-01-04T10:02:53.979Z,33.57
2023-01-04T10:08:03.916Z,29.20
2023-01-04T10:13:32.660Z,35.80
2023-01-04T10:20:08.030Z,37.50
2023-01-04T10:24:22.873Z,29.03
2023-01-04T10:29:29.541Z,36.60
2023-01-04T10:34:39.794Z,34.90
2023-01-04T10:39:45.547Z,30.03
2023-01-04T15:09:22.145Z,8.87
2023-01-04T15:14:26.271Z,16.03
2023-01-04T15:19:37.327Z,11.23
2023-01-04T15:24:43.023Z,11.73
2023-01-04T15:29:46.810Z,11.07
2023-01-04T15:34:52.120Z,9.70
2023-01-04T15:40:02.647Z,11.30
2023-01-04T15:45:07.537Z,11.80
2023-01-04T15:50:11.181Z,12.27
2023-01-04T15:55:15.247Z,10.93
2023-01-04T16:00:19.147Z,10.70
2023-01-04T16:05:24.018Z,10.13
2023-01-04T16:10:29.056Z,10.30
2023-01-04T16:15:33.184Z,9.83
2023-01-04T16:20:36.769Z,10.67
2023-01-04T16:25:48.909Z,12.07
2023-01-04T16:30:58.850Z,9.53
2023-01-04T16:36:05.791Z,10.03
2023-01-04T16:41:15.468Z,12.50
2023-01-04T16:46:25.314Z,9.90
2023-01-04T16:51:40.442Z,13.57
2023-01-04T16:56:45.806Z,13.50
2023-01-04T17:01:57.298Z,10.97
2023-01-04T17:24:25.192Z,11.80
2023-01-04T17:29:39.472Z,10.73
2023-01-04T17:34:45.362Z,11.90
2023-01-04T17:39:49.304Z,11.27
2023-01-04T17:44:54.866Z,10.23
2023-01-04T17:50:01.627Z,10.13
2023-01-04T17:55:07.459Z,12.53
2023-01-04T18:00:15.244Z,10.00
2023-01-04T18:05:26.222Z,8.27
2023-01-04T18:10:41.250Z,11.80
2023-01-04T18:16:18.479Z,11.10
2023-01-04T18:21:28.490Z,10.37
2023-01-04T18:26:53.450Z,10.43
2023-01-04T18:32:04.276Z,9.80
2023-01-04T18:37:34.209Z,11.67
2023-01-04T18:42:42.226Z,10.93
2023-01-04T18:53:17.677Z,8.93
2023-01-04T18:58:49.145Z,12.10
2023-01-04T19:03:55.267Z,10.10
2023-01-04T19:09:14.911Z,9.90
2023-01-04T19:14:24.976Z,8.33
2023-01-04T19:19:31.104Z,10.60
2023-01-04T19:24:47.185Z,9.97
2023-01-04T19:29:56.769Z,8.23
2023-01-04T19:35:04.750Z,10.83
2023-01-04T19:40:12.968Z,10.43
2023-01-04T19:45:37.063Z,11.17
2023-01-04T19:50:45.549Z,13.03
2023-01-04T19:56:05.489Z,11.03
2023-01-04T20:01:40.368Z,11.77
2023-01-04T20:06:45.855Z,11.23
2023-01-04T20:12:02.165Z,11.97
2023-01-04T20:17:09.421Z,10.33
2023-01-04T20:22:54.138Z,12.57
2023-01-04T20:28:00.133Z,10.20
2023-01-04T20:33:07.087Z,10.20
2023-01-04T20:38:15.907Z,11.63
2023-01-04T20:43:46.551Z,10.17
2023-01-04T20:49:03.552Z,9.57
2023-01-04T20:54:08.642Z,8.93
2023-01-04T20:59:17.823Z,9.37
2023-01-04T21:04:29.769Z,8.93
2023-01-04T21:09:38.379Z,8.33
2023-01-04T21:14:43.799Z,8.33
2023-01-04T21:19:53.334Z,7.47
2023-01-04T21:24:59.333Z,9.17
2023-01-04T21:30:08.630Z,8.83
2023-01-04T21:35:14.648Z,9.97
2023-01-04T21:40:21.788Z,10.37
2023-01-04T21:45:27.796Z,9.20
2023-01-04T21:50:31.959Z,8.83
2023-01-04T21:55:39.192Z,8.20
2023-01-04T22:00:45.704Z,11.67
2023-01-04T22:05:52.138Z,8.07
2023-01-04T22:10:57.630Z,9.57
2023-01-04T22:16:05.673Z,6.63
2023-01-04T22:21:14.370Z,7.73
2023-01-04T22:26:18.663Z,7.30
2023-01-04T22:31:26.466Z,7.70
2023-01-04T22:36:30.291Z,7.63
2023-01-04T22:41:35.743Z,8.23
2023-01-04T22:46:47.188Z,6.80
2023-01-04T22:52:01.864Z,5.57
2023-01-04T22:57:05.817Z,9.63
2023-01-04T23:02:10.218Z,7.53
2023-01-04T23:07:14.306Z,3.73
2023-01-04T23:12:18.286Z,6.30
2023-01-04T23:17:22.272Z,5.13
2023-01-04T23:22:26.437Z,7.73
2023-01-04T23:27:32.620Z,5.60
2023-01-04T23:32:36.836Z,7.77
2023-01-04T23:37:40.304Z,5.37
2023-01-04T23:42:46.927Z,2.73
2023-01-04T23:47:52.204Z,3.77
2023-01-04T23:52:56.031Z,1.83
2023-01-04T23:58:00.218Z,3.70
